Miami, FL (33186)

8:25 AM EST on February 11, 2016 (GMT -0500)
The Hammocks | | Change Station
CLOSE
Current Station
Personal Weather Station
Location: Miami, FL
Elevation: 6 ft
Nearby Weather Stations

Elev 6 ft 25.67 °N, 80.44 °W | Updated 25 seconds ago

Clear
Clear
51.2 °F
Feels Like 51.2 °F
N
2.0
Wind Variable Wind from North
Gusts 8.0 mph

Today
High -- | Low -- °F
--% Chance of Precip.
Yesterday
High -- | Low -- °F
Precip. -- in
Pressure 30.32 in
Visibility 10.0 miles
Clouds Clear
Dew Point 43 °F
Humidity 73%
Rainfall Not available.
Snow Depth Not available.
6:59 AM 6:12 PM
Waxing Crescent, 12% visible
METAR KTMB 111253Z 35006KT 10SM CLR 11/07 A3031 RMK AO2 SLP265 T01060067
Pressure 30.32 in
Visibility 10.0 miles
Clouds Clear
Dew Point 43 °F
Humidity 73%
Rainfall Not available.
Snow Depth Not available.
6:59 AM 6:12 PM
Waxing Crescent, 12% visible
METAR KTMB 111253Z 35006KT 10SM CLR 11/07 A3031 RMK AO2 SLP265 T01060067

10-Day Weather Forecast

Almanac

Astronomy

Feb. 11, 2016 Rise Set
Actual Time
Civil Twilight
Nautical Twilight
Astronomical Twilight
Moon
Length of Visible Light
Length of Day
Tomorrow will be .
, % of the Moon is Illuminated

Today's Extremes

State Highs State Lows

Community

WunderPhotos

Upload Photos

1,892,041 photos uploaded!

WunderBlog® & News

Nearby

Air Quality

  Air Quality AQ Index Pollutant
Not available.

Snow Depth

Station Depth Elevation

Earthquake Activity

City Distance Mag. Time & Date
Minimum magnitude displayed is 2.5.

Coastal Water Temperatures

Place Temperature

Stations

Nearby Weather Stations

Station Location Temp. Windchill Dew Point Humidity Wind Precip. Elev Updated Type
                   

Watches & Warnings

There are currently no watches in effect.